createdAt,value
2018-12-04T00:00:02.879Z,37.50
2018-12-04T00:04:58.654Z,38.60
2018-12-04T00:09:53.274Z,35.80
2018-12-04T00:14:47.871Z,38.27
2018-12-04T00:19:42.475Z,42.73
2018-12-04T00:24:37.104Z,32.23
2018-12-04T00:29:31.678Z,26.27
2018-12-04T00:34:26.237Z,24.10
2018-12-04T00:39:20.836Z,26.00
2018-12-04T00:44:15.397Z,25.37
2018-12-04T00:49:09.975Z,23.87
2018-12-04T00:54:04.978Z,23.40
2018-12-04T00:58:59.582Z,25.33
2018-12-04T01:03:54.127Z,24.73
2018-12-04T01:08:48.662Z,28.57
2018-12-04T01:13:43.218Z,27.63
2018-12-04T01:18:37.868Z,27.20
2018-12-04T01:23:32.665Z,22.83
2018-12-04T01:28:27.236Z,20.70
2018-12-04T01:33:21.779Z,19.67
2018-12-04T01:38:16.358Z,19.93
2018-12-04T01:43:10.910Z,17.87
2018-12-04T01:48:05.497Z,19.87
2018-12-04T01:53:00.039Z,14.17
2018-12-04T01:57:59.106Z,15.97
2018-12-04T02:02:53.757Z,19.53
2018-12-04T02:07:48.361Z,18.37
2018-12-04T02:12:43.498Z,15.00
2018-12-04T02:17:38.090Z,17.57
2018-12-04T02:22:32.663Z,15.23
2018-12-04T02:27:27.232Z,19.50
2018-12-04T02:32:21.794Z,18.07
2018-12-04T02:37:16.398Z,17.20
2018-12-04T02:42:10.951Z,16.23
2018-12-04T02:47:05.501Z,18.63
2018-12-04T02:52:00.082Z,19.37
2018-12-04T02:56:54.637Z,17.53
2018-12-04T03:01:49.206Z,18.83
2018-12-04T03:06:43.774Z,20.17
2018-12-04T03:11:38.331Z,18.20
2018-12-04T03:16:32.887Z,19.23
2018-12-04T03:21:27.414Z,18.23
2018-12-04T03:26:21.957Z,20.10
2018-12-04T03:31:16.532Z,16.03
2018-12-04T03:36:11.137Z,15.10
2018-12-04T03:41:05.854Z,17.93
2018-12-04T03:46:00.425Z,15.20
2018-12-04T03:50:55.002Z,18.57
2018-12-04T03:55:49.576Z,14.67
2018-12-04T04:00:44.139Z,25.77
2018-12-04T04:05:38.735Z,18.50
2018-12-04T04:10:33.323Z,20.53
2018-12-04T04:15:28.270Z,17.60
2018-12-04T04:20:23.334Z,15.47
2018-12-04T04:25:17.919Z,14.73
2018-12-04T04:30:12.505Z,44.60
2018-12-04T04:35:07.105Z,127.20
2018-12-04T04:40:01.716Z,29.20
2018-12-04T04:44:56.335Z,21.27
2018-12-04T04:49:51.135Z,38.53
2018-12-04T04:54:45.781Z,30.30
2018-12-04T04:59:40.490Z,25.43
2018-12-04T05:04:35.101Z,17.10
2018-12-04T05:09:29.763Z,21.67
2018-12-04T05:14:24.400Z,15.33
2018-12-04T05:19:19.037Z,18.47
2018-12-04T05:24:13.679Z,17.07
2018-12-04T05:29:08.314Z,18.10
2018-12-04T05:34:02.959Z,17.73
2018-12-04T05:38:57.738Z,17.60
2018-12-04T05:43:52.451Z,21.97
2018-12-04T05:48:47.196Z,20.60
2018-12-04T05:53:41.804Z,21.53
2018-12-04T05:58:36.429Z,15.03
2018-12-04T06:03:31.032Z,13.93
2018-12-04T06:08:26.518Z,17.23
2018-12-04T06:13:21.209Z,39.33
2018-12-04T06:18:15.831Z,18.63
2018-12-04T06:23:10.458Z,25.27
2018-12-04T06:28:05.051Z,22.97
2018-12-04T06:32:59.654Z,29.87
2018-12-04T06:37:54.225Z,23.07
2018-12-04T06:42:48.845Z,22.23
2018-12-04T06:47:43.402Z,18.63
2018-12-04T06:52:37.981Z,29.60
2018-12-04T06:57:32.647Z,39.40
2018-12-04T07:02:27.282Z,17.57
2018-12-04T07:07:21.876Z,20.27
2018-12-04T07:12:16.484Z,19.43
2018-12-04T07:17:11.096Z,30.57
2018-12-04T07:22:05.714Z,29.43
2018-12-04T07:27:00.375Z,29.33
2018-12-04T07:31:54.937Z,23.87
2018-12-04T07:36:49.581Z,29.30
2018-12-04T07:41:44.818Z,27.53
2018-12-04T07:46:40.581Z,21.20
2018-12-04T07:51:35.146Z,25.13
2018-12-04T07:56:29.746Z,20.93
2018-12-04T08:01:24.385Z,22.77
2018-12-04T08:06:19.024Z,22.97
2018-12-04T08:11:14.666Z,19.70
2018-12-04T08:16:09.273Z,16.37
2018-12-04T08:21:03.886Z,18.90
2018-12-04T08:25:58.475Z,18.50
2018-12-04T08:30:53.060Z,19.30
2018-12-04T08:35:47.724Z,27.03
2018-12-04T08:40:42.377Z,18.37
2018-12-04T08:45:36.997Z,14.27
2018-12-04T08:50:31.592Z,22.67
2018-12-04T08:55:26.202Z,21.90
2018-12-04T09:00:20.790Z,18.40
2018-12-04T09:05:15.427Z,15.87
2018-12-04T09:10:10.177Z,19.33
2018-12-04T09:15:05.275Z,22.67
2018-12-04T09:19:59.884Z,16.50
2018-12-04T09:24:54.564Z,23.23
2018-12-04T09:29:49.284Z,21.83
2018-12-04T09:34:43.889Z,17.17
2018-12-04T09:39:38.521Z,19.33
2018-12-04T09:44:33.226Z,16.20
2018-12-04T09:49:28.571Z,19.13
2018-12-04T09:54:23.198Z,19.60
2018-12-04T09:59:17.901Z,19.93
2018-12-04T10:04:12.630Z,15.20
2018-12-04T10:09:09.379Z,10.93
2018-12-04T10:14:04.386Z,20.53
2018-12-04T10:18:59.155Z,15.63
2018-12-04T10:23:54.192Z,13.03
2018-12-04T10:28:48.844Z,11.07
2018-12-04T10:33:43.553Z,11.23
2018-12-04T10:38:38.896Z,13.00
2018-12-04T10:43:34.188Z,15.03
2018-12-04T10:48:28.984Z,10.50
2018-12-04T10:53:23.674Z,9.20
2018-12-04T10:58:18.364Z,9.97
2018-12-04T11:03:14.024Z,10.77
2018-12-04T11:08:08.755Z,14.30
2018-12-04T11:13:03.419Z,9.37
2018-12-04T11:17:58.069Z,7.13
2018-12-04T11:22:52.747Z,6.87
2018-12-04T11:27:47.468Z,12.73
2018-12-04T11:32:42.152Z,7.03
2018-12-04T11:37:36.935Z,7.93
2018-12-04T11:42:31.707Z,14.23
2018-12-04T11:47:26.499Z,9.93
2018-12-04T11:52:22.131Z,8.70
2018-12-04T11:57:17.053Z,8.20
2018-12-04T12:02:12.004Z,8.80
2018-12-04T12:07:10.372Z,7.83
2018-12-04T12:12:09.735Z,1.80
2018-12-04T12:17:10.071Z,0.93
2018-12-04T12:22:09.477Z,0.60
2018-12-04T12:27:08.025Z,2.97
2018-12-04T12:32:08.141Z,2.53
2018-12-04T12:37:09.947Z,1.97
2018-12-04T12:42:08.985Z,3.53
2018-12-04T12:47:07.920Z,3.43
2018-12-04T12:52:07.742Z,4.63
2018-12-04T12:57:07.310Z,1.77
2018-12-04T13:02:05.135Z,3.17
2018-12-04T13:06:59.864Z,4.80
2018-12-04T13:11:54.579Z,2.47
2018-12-04T13:16:49.262Z,4.57
2018-12-04T13:21:45.169Z,6.07
2018-12-04T13:26:40.131Z,3.83
2018-12-04T13:31:34.848Z,3.93
2018-12-04T13:36:29.627Z,1.93
2018-12-04T13:41:24.340Z,1.60
2018-12-04T13:46:19.048Z,10.00
2018-12-04T13:51:13.905Z,100.17
2018-12-04T13:56:08.602Z,16.17
2018-12-04T14:01:03.303Z,10.73
2018-12-04T14:05:57.950Z,5.93
2018-12-04T14:10:52.563Z,2.87
2018-12-04T14:15:48.238Z,1.23
2018-12-04T14:20:42.960Z,7.23
2018-12-04T14:25:37.720Z,8.07
2018-12-04T14:30:32.534Z,6.40
2018-12-04T14:35:27.204Z,5.33
2018-12-04T14:40:21.815Z,5.33
2018-12-04T14:45:16.983Z,9.27
2018-12-04T14:50:11.733Z,26.17
2018-12-04T14:55:07.318Z,21.90
2018-12-04T15:00:01.965Z,12.13
2018-12-04T15:04:58.662Z,29.27
2018-12-04T15:09:53.332Z,10.13
2018-12-04T15:14:48.158Z,13.67
2018-12-04T15:19:42.881Z,13.30
2018-12-04T15:24:37.603Z,26.97
2018-12-04T15:29:32.426Z,39.17
2018-12-04T15:34:27.210Z,29.83
2018-12-04T15:39:22.034Z,34.60
2018-12-04T15:44:16.928Z,23.47
2018-12-04T15:49:11.702Z,31.10
2018-12-04T15:54:06.496Z,24.67
2018-12-04T15:59:01.328Z,23.00
2018-12-04T16:03:56.338Z,19.27
2018-12-04T16:08:50.981Z,25.00
2018-12-04T16:13:45.675Z,23.87
2018-12-04T16:18:41.603Z,42.37
2018-12-04T16:23:36.720Z,39.33
2018-12-04T16:28:31.827Z,31.17
2018-12-04T16:33:26.476Z,32.07
2018-12-04T16:38:21.831Z,59.47
2018-12-04T16:43:16.479Z,93.67
2018-12-04T16:48:11.439Z,58.13
2018-12-04T16:53:08.128Z,40.53
2018-12-04T16:58:03.784Z,44.57
2018-12-04T17:02:58.476Z,63.27
2018-12-04T17:07:53.097Z,53.23
2018-12-04T17:12:48.726Z,104.47
2018-12-04T17:17:43.515Z,61.57
2018-12-04T17:22:38.274Z,50.87
2018-12-04T17:27:34.159Z,38.87
2018-12-04T17:32:30.930Z,33.50
2018-12-04T17:37:26.577Z,29.77
2018-12-04T17:42:21.225Z,34.50
2018-12-04T17:47:15.918Z,36.23
2018-12-04T17:52:10.572Z,48.00
2018-12-04T17:57:06.599Z,39.50
2018-12-04T18:02:03.740Z,43.77
2018-12-04T18:07:01.501Z,38.80
2018-12-04T18:11:56.854Z,32.87
2018-12-04T18:16:53.763Z,34.67
2018-12-04T18:21:48.675Z,40.90
2018-12-04T18:26:43.412Z,56.03
2018-12-04T18:31:39.007Z,45.67
2018-12-04T18:36:33.767Z,56.07
2018-12-04T18:41:32.153Z,47.10
2018-12-04T18:46:25.782Z,44.83
2018-12-04T18:51:20.434Z,42.93
2018-12-04T18:56:15.131Z,49.70
2018-12-04T19:01:09.965Z,46.40
2018-12-04T19:06:04.901Z,48.13
2018-12-04T19:10:59.584Z,56.30
2018-12-04T19:15:54.777Z,51.97
2018-12-04T19:20:49.485Z,75.33
2018-12-04T19:25:44.855Z,68.97
2018-12-04T19:30:39.555Z,61.27
2018-12-04T19:35:35.089Z,60.90
2018-12-04T19:40:30.487Z,57.53
2018-12-04T19:45:25.252Z,55.53
2018-12-04T19:50:20.950Z,47.33
2018-12-04T19:55:15.953Z,48.23
2018-12-04T20:00:11.925Z,38.13
2018-12-04T20:05:07.275Z,35.33
2018-12-04T20:10:03.353Z,34.20
2018-12-04T20:14:58.396Z,33.27
2018-12-04T20:19:53.259Z,29.67
2018-12-04T20:24:48.094Z,31.40
2018-12-04T20:29:42.788Z,32.20
2018-12-04T20:34:37.507Z,33.73
2018-12-04T20:39:32.342Z,31.63
2018-12-04T20:44:27.221Z,30.60
2018-12-04T20:49:22.159Z,34.23
2018-12-04T20:54:17.231Z,35.40
2018-12-04T20:59:12.017Z,29.87
2018-12-04T21:04:07.167Z,34.50
2018-12-04T21:09:02.083Z,37.67
2018-12-04T21:13:58.051Z,37.93
2018-12-04T21:18:52.839Z,36.03
2018-12-04T21:23:47.554Z,31.87
2018-12-04T21:28:46.624Z,30.40
2018-12-04T21:34:48.527Z,27.83
2018-12-04T21:39:47.572Z,31.23
2018-12-04T21:44:47.376Z,30.57
2018-12-04T21:49:42.008Z,25.70
2018-12-04T21:54:36.658Z,26.57
2018-12-04T21:59:31.280Z,27.10
2018-12-04T22:04:26.746Z,23.57
2018-12-04T22:09:21.411Z,22.17
2018-12-04T22:14:16.061Z,20.83
2018-12-04T22:19:11.440Z,13.93
2018-12-04T22:24:06.087Z,19.87
2018-12-04T22:29:00.707Z,36.70
2018-12-04T22:33:55.307Z,36.17
2018-12-04T22:38:51.043Z,37.93
2018-12-04T22:43:45.558Z,32.53
2018-12-04T22:48:40.186Z,27.50
2018-12-04T22:53:35.841Z,22.00
2018-12-04T22:58:30.434Z,18.77
2018-12-04T23:03:24.978Z,15.43
2018-12-04T23:08:19.517Z,24.87
2018-12-04T23:13:14.070Z,21.60
2018-12-04T23:18:08.683Z,23.00
2018-12-04T23:23:03.725Z,23.93
2018-12-04T23:27:58.204Z,24.30
2018-12-04T23:32:52.683Z,22.67
2018-12-04T23:37:47.154Z,23.80
2018-12-04T23:42:41.697Z,25.13
2018-12-04T23:47:36.149Z,26.57
2018-12-04T23:52:30.613Z,24.37
2018-12-04T23:57:25.088Z,23.63
